Список аэропортов
Фактическая погода:

24 июня, 22:30
Температура: +20°C (+20.0*)
Ветер: сев.-восточный 2 м/с
Давление: *759 мм
Без существ. явл.
Время (МСК)Темп. СВетерВлажностьДавлениеОблачностьОсадки
20:00+22З, 1 м/с57%1012 гПаоблачно
21:00+20СЗ, 1 м/с63%1013 гПаоблачно
22:00+19С, 2 м/с68%1013 гПаоблачно
23:00+18С, 2 м/с74%1013 гПас прояснениями
25 июня
00:00+17С, 2 м/с80%1013 гПас прояснениями
01:00+16СВ, 2 м/с84%1014 гПас прояснениями
02:00+16СВ, 1 м/с84%1014 гПаоблачно
03:00+16СВ, 1 м/с82%1013 гПаоблачно
04:00+17В, 2 м/с79%1013 гПаоблачно
05:00+17В, 1 м/с75%1014 гПаоблачно
06:00+19ЮВ, 1 м/с69%1013 гПаоблачно
07:00+22Ю, 2 м/с58%1013 гПаоблачно
08:00+24ЮЗ, 3 м/с46%1013 гПаоблачно
09:00+25ЮЗ, 3 м/с42%1013 гПаоблачно
10:00+26ЮЗ, 3 м/с39%1014 гПас прояснениями
11:00+26ЮЗ, 4 м/с38%1014 гПаоблачно
12:00+26ЮЗ, 3 м/с35%1014 гПас прояснениями
13:00+26ЮЗ, 3 м/с33%1014 гПаоблачно
14:00+26ЮЗ, 2 м/с32%1014 гПаоблачно
15:00+26Ю, 2 м/с31%1014 гПаоблачно
16:00+26Ю, 2 м/с31%1014 гПаоблачно
17:00+26Ю, 2 м/с33%1013 гПаоблачно
18:00+25ЮВ, 1 м/с41%1013 гПаясно
19:00+24В, 1 м/с47%1013 гПамалооблачно
20:00+22СВ, 2 м/с56%1013 гПаоблачно
21:00+20СВ, 2 м/с63%1013 гПаоблачносл. дождь
22:00+20СВ, 1 м/с68%1013 гПаоблачнодождь
23:00+19В, 3 м/с76%1013 гПаоблачнодождь
26 июня
00:00+18В, 4 м/с83%1012 гПаоблачно
01:00+18В, 3 м/с85%1012 гПаоблачно
02:00+17В, 2 м/с90%1012 гПаоблачнодождь
03:00+17В, 2 м/с92%1012 гПаоблачнодождь
04:00+17В, 2 м/с93%1011 гПаоблачнодождь
05:00+18В, 3 м/с90%1011 гПаоблачнодождь
06:00+20ЮВ, 3 м/с85%1011 гПаоблачно
07:00+22ЮВ, 3 м/с82%1011 гПас прояснениямидождь
08:00+23ЮВ, 3 м/с73%1010 гПамалооблачносл. дождь
09:00+26ЮВ, 3 м/с65%1010 гПас прояснениями
10:00+27ЮВ, 2 м/с62%1010 гПаоблачносл. дождь
11:00+28Ю, 3 м/с60%1010 гПаоблачносл. дождь
12:00+25ЮЗ, 3 м/с82%1010 гПаоблачнодождь
13:00+23З, 4 м/с89%1011 гПас прояснениямидождь
14:00+24З, 3 м/с87%1012 гПаоблачнодождь
15:00+23З, 3 м/с90%1012 гПас прояснениямидождь
16:00+23З, 3 м/с86%1012 гПамалооблачносл. дождь
17:00+22З, 3 м/с82%1012 гПамалооблачно
18:00+22СЗ, 2 м/с76%1013 гПас прояснениями
19:00+21СЗ, 2 м/с79%1012 гПас прояснениями
20:00+20С, 2 м/с84%1012 гПас прояснениями